Time;durP1;ratioP1;P1;durP2;ratioP2;P2;SDS_P1;SDS_P2;PMS_P1;PMS_P2;Temp;Humidity;BMP_temperature;BMP_pressure;BME280_temperature;BME280_humidity;BME280_pressure;Samples;Min_cycle;Max_cycle;Signal;HPM_P1;HPM_P2
2023/10/11 00:05:41;;;;;;;0.77;0.57;;;;;;;22.23;100.00;101324.94;10454609;28;20120;-77
2023/10/11 00:10:54;;;;;;;0.57;0.30;;;;;;;22.20;100.00;101325.84;10458490;28;20116;-76
2023/10/11 00:15:56;;;;;;;1.02;0.68;;;;;;;22.00;100.00;101318.31;10443289;28;20117;-77
2023/10/11 00:20:59;;;;;;;0.40;0.30;;;;;;;21.85;100.00;101315.03;10451879;28;20038;-77
2023/10/11 00:26:01;;;;;;;0.80;0.65;;;;;;;21.93;100.00;101320.16;10448243;28;20057;-77
2023/10/11 00:31:06;;;;;;;0.75;0.30;;;;;;;22.07;100.00;101327.81;10457394;28;20136;-77
2023/10/11 00:36:08;;;;;;;0.63;0.52;;;;;;;21.83;100.00;101315.91;10439643;28;20522;-76
2023/10/11 00:41:12;;;;;;;0.80;0.40;;;;;;;21.86;100.00;101316.72;10448688;28;20500;-77
2023/10/11 00:46:18;;;;;;;6.20;1.25;;;;;;;21.76;100.00;101314.25;10435706;28;20044;-77
2023/10/11 00:51:24;;;;;;;0.95;0.52;;;;;;;21.50;100.00;101308.47;10457259;28;20048;-77
2023/10/11 00:56:31;;;;;;;2.15;0.60;;;;;;;21.92;100.00;101305.28;10456640;28;20136;-77
2023/10/11 01:01:38;;;;;;;0.90;0.60;;;;;;;21.69;100.00;101297.78;10456705;28;20087;-77
2023/10/11 01:06:40;;;;;;;0.60;0.38;;;;;;;21.71;100.00;101296.84;10444898;28;20505;-77
2023/10/11 01:11:41;;;;;;;1.77;0.47;;;;;;;21.77;100.00;101295.03;10444883;28;20396;-76
2023/10/11 01:16:43;;;;;;;1.10;0.73;;;;;;;21.87;100.00;101294.88;10455865;28;20052;-77
2023/10/11 01:21:52;;;;;;;1.05;0.68;;;;;;;21.55;100.00;101293.56;10456248;28;20051;-76
2023/10/11 01:26:56;;;;;;;1.02;0.60;;;;;;;21.53;100.00;101287.47;10456003;28;20052;-77
2023/10/11 01:31:58;;;;;;;0.40;0.20;;;;;;;21.49;100.00;101284.91;10433302;28;20049;-76
2023/10/11 01:37:00;;;;;;;0.13;0.10;;;;;;;21.81;100.00;101284.47;10427245;28;20460;-76
2023/10/11 01:42:02;;;;;;;0.93;0.47;;;;;;;22.03;100.00;101282.41;10435058;28;20103;-77
2023/10/11 01:47:05;;;;;;;0.88;0.63;;;;;;;21.62;100.00;101280.41;10448156;28;20065;-77
2023/10/11 01:52:07;;;;;;;0.35;0.30;;;;;;;21.64;100.00;101278.59;10444229;28;20498;-76
2023/10/11 01:57:10;;;;;;;1.33;0.45;;;;;;;21.71;100.00;101270.63;10437568;28;20503;-77
2023/10/11 02:02:13;;;;;;;0.50;0.38;;;;;;;21.69;100.00;101266.31;10427642;28;20049;-76
2023/10/11 02:07:15;;;;;;;0.65;0.63;;;;;;;21.59;100.00;101260.34;10442495;28;20045;-77
2023/10/11 02:12:19;;;;;;;0.43;0.28;;;;;;;21.59;100.00;101259.44;10438208;28;20079;-76
2023/10/11 02:17:23;;;;;;;0.52;0.40;;;;;;;21.23;100.00;101246.78;10454504;28;20139;-77
2023/10/11 02:22:25;;;;;;;0.43;0.28;;;;;;;21.51;100.00;101252.53;10455397;28;20065;-77
2023/10/11 02:27:27;;;;;;;1.17;0.40;;;;;;;21.62;100.00;101256.78;10454148;28;20047;-76
2023/10/11 02:32:33;;;;;;;0.75;0.30;;;;;;;21.73;100.00;101247.00;10437746;28;20056;-76
2023/10/11 02:37:36;;;;;;;6.07;0.63;;;;;;;21.31;100.00;101242.31;10454019;28;20080;-77
2023/10/11 02:42:37;;;;;;;1.17;0.55;;;;;;;21.53;100.00;101244.63;10424600;28;20077;-77
2023/10/11 02:47:40;;;;;;;0.22;0.20;;;;;;;21.52;100.00;101245.56;10439503;28;20041;-76
2023/10/11 02:52:43;;;;;;;0.50;0.40;;;;;;;21.04;100.00;101240.91;10424959;28;20147;-77
2023/10/11 02:57:45;;;;;;;1.40;0.70;;;;;;;21.29;100.00;101235.38;10453639;28;20369;-77
2023/10/11 03:02:54;;;;;;;1.45;0.68;;;;;;;21.34;100.00;101238.78;10438086;28;20107;-77
2023/10/11 03:08:13;;;;;;;0.35;0.35;;;;;;;21.40;100.00;101233.47;10461137;28;20037;-77
2023/10/11 03:13:23;;;;;;;0.85;0.40;;;;;;;21.03;100.00;101223.50;10460943;28;20056;-77
2023/10/11 03:18:32;;;;;;;2.77;2.57;;;;;;;20.73;100.00;101215.13;10428966;28;20124;-77
2023/10/11 03:23:47;;;;;;;0.70;0.55;;;;;;;20.53;100.00;101200.44;10457744;28;20037;-76
2023/10/11 03:28:59;;;;;;;0.47;0.35;;;;;;;20.19;100.00;101203.41;10460458;28;20053;-77
2023/10/11 03:34:11;;;;;;;0.82;0.75;;;;;;;20.44;100.00;101204.03;10460304;28;20080;-77
2023/10/11 03:39:16;;;;;;;0.98;0.85;;;;;;;19.86;100.00;101191.50;10452962;28;20154;-77
2023/10/11 03:44:20;;;;;;;1.25;0.57;;;;;;;19.97;100.00;101197.50;10446186;28;20041;-77
2023/10/11 03:54:26;;;;;;;0.95;0.38;;;;;;;20.34;100.00;101196.31;10460789;28;20400;-76
2023/10/11 03:59:28;;;;;;;0.20;0.20;;;;;;;19.86;100.00;101194.97;10459291;28;20040;-76
2023/10/11 04:04:30;;;;;;;0.63;0.57;;;;;;;19.63;100.00;101193.38;10459048;28;20060;-77
2023/10/11 04:09:37;;;;;;;0.35;0.30;;;;;;;20.05;100.00;101189.59;10458872;28;20057;-77
2023/10/11 04:14:42;;;;;;;0.40;0.20;;;;;;;19.76;100.00;101188.06;10458380;28;20045;-76
2023/10/11 04:19:43;;;;;;;2.30;1.13;;;;;;;19.75;100.00;101186.34;10441856;28;20079;-76
2023/10/11 04:24:45;;;;;;;5.60;0.82;;;;;;;20.04;100.00;101174.78;10458336;28;20167;-77
2023/10/11 04:29:50;;;;;;;0.60;0.38;;;;;;;19.84;100.00;101191.53;10457914;28;20053;-76
2023/10/11 04:34:58;;;;;;;0.90;0.73;;;;;;;19.76;100.00;101178.47;10457835;28;20111;-77
2023/10/11 04:40:23;;;;;;;0.60;0.52;;;;;;;19.38;100.00;101176.13;10457296;28;20049;-77
2023/10/11 04:45:30;;;;;;;1.63;0.70;;;;;;;19.90;100.00;101188.84;10457949;28;20072;-77
2023/10/11 04:50:53;;;;;;;1.25;0.35;;;;;;;19.79;100.00;101183.69;10457688;28;20048;-77
2023/10/11 04:56:51;;;;;;;0.40;0.40;;;;;;;19.40;100.00;101190.06;10456956;28;20045;-77
2023/10/11 05:01:23;;;;;;;1.20;1.08;;;;;;;19.45;100.00;101183.06;10435721;28;20053;-76
2023/10/11 05:06:39;;;;;;;1.63;0.68;;;;;;;19.27;100.00;101195.34;10442443;28;20041;-77
2023/10/11 05:11:46;;;;;;;0.77;0.57;;;;;;;19.34;100.00;101202.25;10456789;28;20495;-76
2023/10/11 05:16:49;;;;;;;0.28;0.28;;;;;;;18.86;100.00;101209.44;10456342;28;20064;-77
2023/10/11 05:21:53;;;;;;;0.90;0.85;;;;;;;18.82;100.00;101197.25;10457439;28;20396;-76
2023/10/11 05:32:32;;;;;;;2.25;1.25;;;;;;;19.41;100.00;101183.94;10447385;28;20506;-76
2023/10/11 05:53:35;;;;;;;0.75;0.63;;;;;;;19.08;100.00;101193.72;10455340;28;20044;-77
2023/10/11 05:58:37;;;;;;;1.55;0.70;;;;;;;19.55;100.00;101199.53;10455304;28;20045;-77
2023/10/11 06:03:39;;;;;;;0.60;0.32;;;;;;;19.32;100.00;101197.94;10455268;28;20492;-77
2023/10/11 06:08:44;;;;;;;4.50;1.15;;;;;;;19.78;100.00;101213.31;10433356;28;20037;-76
2023/10/11 06:13:47;;;;;;;0.28;0.25;;;;;;;19.79;100.00;101203.72;10454892;28;20476;-76
2023/10/11 06:19:15;;;;;;;6.22;0.75;;;;;;;19.66;100.00;101206.44;10434708;28;20072;-76
2023/10/11 06:24:17;;;;;;;0.73;0.22;;;;;;;19.72;100.00;101181.09;10446051;28;20052;-76
2023/10/11 06:29:23;;;;;;;1.15;0.73;;;;;;;20.17;100.00;101188.63;10454380;28;20098;-77
2023/10/11 06:34:26;;;;;;;0.47;0.40;;;;;;;20.40;100.00;101185.75;10437876;28;20099;-76
2023/10/11 06:39:50;;;;;;;0.32;0.22;;;;;;;20.69;100.00;101197.66;10422733;28;20064;-76
2023/10/11 06:44:57;;;;;;;0.40;0.28;;;;;;;20.68;100.00;101178.47;10445469;28;20037;-77
2023/10/11 06:50:10;;;;;;;0.93;0.40;;;;;;;20.72;100.00;101176.69;10456185;28;20056;-76
2023/10/11 06:55:14;;;;;;;0.38;0.32;;;;;;;20.69;100.00;101188.06;10449236;28;20449;-78
2023/10/11 07:00:21;;;;;;;0.73;0.50;;;;;;;21.10;100.00;101196.31;10460550;28;20090;-76
2023/10/11 07:05:25;;;;;;;0.75;0.73;;;;;;;21.15;100.00;101201.50;10453584;28;20147;-77
2023/10/11 07:10:28;;;;;;;1.10;0.52;;;;;;;21.74;100.00;101206.78;10442032;28;20064;-76
2023/10/11 07:15:44;;;;;;;2.20;0.73;;;;;;;21.83;100.00;101201.41;10447503;28;20052;-76
2023/10/11 07:20:48;;;;;;;1.05;0.82;;;;;;;22.33;100.00;101211.03;10460473;28;20083;-76
2023/10/11 07:31:38;;;;;;;0.63;0.40;;;;;;;21.77;100.00;101251.31;10386374;28;20057;-76
2023/10/11 07:36:40;;;;;;;2.47;0.85;;;;;;;22.01;100.00;101267.53;10441776;28;20475;-76
2023/10/11 07:41:42;;;;;;;2.05;1.23;;;;;;;21.53;100.00;101263.88;10434645;28;20140;-77
2023/10/11 07:46:45;;;;;;;1.05;0.93;;;;;;;22.00;100.00;101250.09;10441506;28;20049;-76
2023/10/11 07:51:46;;;;;;;1.95;0.52;;;;;;;21.87;100.00;101245.03;10459051;28;20146;-76
2023/10/11 07:56:56;;;;;;;0.63;0.60;;;;;;;22.40;100.00;101228.44;10459579;28;20045;-75
2023/10/11 08:02:08;;;;;;;0.55;0.17;;;;;;;22.04;100.00;101230.78;10419642;28;20057;-76
2023/10/11 08:07:15;;;;;;;0.90;0.57;;;;;;;22.44;100.00;101240.63;10441169;28;20041;-76
2023/10/11 08:12:19;;;;;;;0.82;0.15;;;;;;;21.85;100.00;101244.22;10465533;28;20045;-77
2023/10/11 08:17:21;;;;;;;0.85;0.50;;;;;;;22.48;100.00;101241.44;10455651;28;20045;-76
2023/10/11 08:22:23;;;;;;;1.55;0.57;;;;;;;22.29;100.00;101244.34;10454756;28;20127;-76
2023/10/11 08:27:27;;;;;;;0.75;0.60;;;;;;;22.32;100.00;101244.31;10457471;28;20063;-76
2023/10/11 08:32:33;;;;;;;0.60;0.57;;;;;;;22.87;100.00;101241.53;10455145;28;20055;-76
2023/10/11 08:37:37;;;;;;;0.47;0.28;;;;;;;23.07;100.00;101229.78;10441380;28;20488;-75
2023/10/11 08:42:39;;;;;;;0.43;0.32;;;;;;;23.00;100.00;101231.66;10438562;28;20041;-76
2023/10/11 08:47:43;;;;;;;4.05;0.73;;;;;;;22.84;100.00;101232.84;10455509;28;20045;-76
2023/10/11 08:52:45;;;;;;;0.10;0.10;;;;;;;24.25;100.00;101248.97;10454928;28;20583;-77
2023/10/11 08:57:47;;;;;;;1.23;0.93;;;;;;;23.22;100.00;101245.25;10450991;28;20043;-76
2023/10/11 09:02:51;;;;;;;0.73;0.32;;;;;;;23.69;100.00;101250.31;10454227;28;20072;-77
2023/10/11 09:07:53;;;;;;;0.73;0.55;;;;;;;23.00;100.00;101259.69;10454770;28;20095;-77
2023/10/11 09:13:00;;;;;;;1.95;1.30;;;;;;;23.25;100.00;101246.94;10437892;28;20507;-77
2023/10/11 09:18:18;;;;;;;0.77;0.30;;;;;;;22.99;100.00;101264.06;10438258;28;20052;-77
2023/10/11 09:23:37;;;;;;;1.50;1.13;;;;;;;22.92;100.00;101273.84;10425884;28;20053;-77
2023/10/11 09:28:46;;;;;;;2.53;0.88;;;;;;;22.80;100.00;101285.47;10454597;28;20526;-78
2023/10/11 09:33:51;;;;;;;0.20;0.10;;;;;;;22.85;100.00;101288.00;10455867;28;20045;-76
2023/10/11 09:38:55;;;;;;;0.95;0.57;;;;;;;22.72;100.00;101278.59;10454074;28;20052;-78
2023/10/11 09:43:57;;;;;;;1.48;1.08;;;;;;;23.98;100.00;101261.94;10454032;28;20043;-76
2023/10/11 09:49:01;;;;;;;1.33;0.55;;;;;;;23.24;100.00;101246.06;10454481;28;20493;-77
2023/10/11 09:54:07;;;;;;;0.80;0.70;;;;;;;23.11;100.00;101253.31;10436260;28;20488;-78
2023/10/11 09:59:22;;;;;;;0.30;0.30;;;;;;;22.67;100.00;101278.72;10453155;28;20056;-77
2023/10/11 10:04:52;;;;;;;1.08;0.98;;;;;;;22.65;100.00;101281.34;10436874;28;20077;-76
2023/10/11 10:09:59;;;;;;;0.70;0.50;;;;;;;22.97;100.00;101274.63;10454760;28;20048;-76
2023/10/11 10:15:13;;;;;;;2.83;1.20;;;;;;;22.93;100.00;101285.22;10453388;28;20049;-77
2023/10/11 10:20:33;;;;;;;1.05;0.57;;;;;;;23.09;100.00;101302.41;10461497;28;20044;-76
2023/10/11 10:25:34;;;;;;;1.17;0.88;;;;;;;22.49;100.00;101320.16;10453476;28;20094;-77
2023/10/11 10:31:09;;;;;;;1.00;0.90;;;;;;;22.70;100.00;101317.19;10461118;28;20500;-77
2023/10/11 10:36:29;;;;;;;0.68;0.52;;;;;;;22.89;100.00;101309.81;10442379;28;20407;-76
2023/10/11 10:41:33;;;;;;;1.02;0.68;;;;;;;22.95;100.00;101318.44;10428185;28;20052;-76
2023/10/11 10:46:36;;;;;;;1.98;1.10;;;;;;;22.50;100.00;101318.38;10458816;28;20407;-77
2023/10/11 10:51:39;;;;;;;0.28;0.28;;;;;;;22.38;100.00;101323.81;10460075;28;20041;-76
2023/10/11 10:56:47;;;;;;;2.85;0.88;;;;;;;22.82;100.00;101309.06;10443188;28;20080;-76
2023/10/11 11:01:53;;;;;;;1.85;0.70;;;;;;;22.61;100.00;101310.31;10455058;28;20047;-76
2023/10/11 11:06:58;;;;;;;0.80;0.63;;;;;;;22.46;100.00;101328.06;10459613;28;20048;-77
2023/10/11 11:12:17;;;;;;;0.85;0.77;;;;;;;23.07;100.00;101313.84;10453177;28;20049;-77
2023/10/11 11:17:20;;;;;;;1.27;0.45;;;;;;;22.52;100.00;101310.50;10440601;28;20045;-78
2023/10/11 11:22:22;;;;;;;1.65;1.23;;;;;;;22.82;100.00;101309.91;10458536;28;20152;-77
2023/10/11 11:27:28;;;;;;;1.52;1.13;;;;;;;22.55;100.00;101299.94;10455597;28;20063;-77
2023/10/11 11:32:38;;;;;;;1.60;0.70;;;;;;;22.70;100.00;101276.00;10458608;28;20447;-79
2023/10/11 11:38:02;;;;;;;;;;;;;;;23.10;100.00;101272.63;10458785;28;20051;-78
2023/10/11 11:43:04;;;;;;;2.50;1.65;;;;;;;22.60;100.00;101242.97;10459683;28;20354;-78
2023/10/11 11:48:06;;;;;;;1.60;1.15;;;;;;;23.36;100.00;101252.81;10457907;28;20041;-78
2023/10/11 11:53:08;;;;;;;0.85;0.73;;;;;;;23.19;100.00;101233.94;10457993;28;20132;-77
2023/10/11 11:58:10;;;;;;;0.65;0.65;;;;;;;23.03;100.00;101223.72;10439670;28;20492;-77
2023/10/11 12:03:15;;;;;;;4.32;1.13;;;;;;;22.60;100.00;101214.09;10457197;28;20045;-79
2023/10/11 12:08:20;;;;;;;1.58;0.95;;;;;;;23.03;100.00;101207.94;10455658;28;20099;-77
2023/10/11 12:13:26;;;;;;;2.08;1.10;;;;;;;23.36;100.00;101205.50;10444972;28;20557;-77
2023/10/11 12:18:33;;;;;;;1.00;0.97;;;;;;;23.49;100.00;101205.22;10447683;28;20037;-77
2023/10/11 12:23:35;;;;;;;2.10;1.20;;;;;;;23.35;100.00;101211.63;10439254;28;20516;-77
2023/10/11 12:28:37;;;;;;;1.08;0.55;;;;;;;22.87;100.00;101222.28;10439021;28;20037;-78
2023/10/11 12:33:39;;;;;;;0.68;0.35;;;;;;;23.66;100.00;101224.09;10439461;28;20133;-78
2023/10/11 12:38:41;;;;;;;1.27;0.80;;;;;;;23.78;100.00;101217.66;10454824;28;20116;-78
2023/10/11 12:43:45;;;;;;;2.83;1.90;;;;;;;23.54;100.00;101230.50;10439343;28;20500;-77
2023/10/11 12:48:54;;;;;;;1.23;0.82;;;;;;;23.18;100.00;101226.94;10454738;28;20037;-77
2023/10/11 12:53:57;;;;;;;6.63;1.58;;;;;;;23.71;100.00;101222.22;10429912;28;20132;-77
2023/10/11 12:58:59;;;;;;;2.13;0.80;;;;;;;23.68;100.00;101222.28;10438585;28;20484;-77
2023/10/11 13:04:13;;;;;;;1.25;0.85;;;;;;;23.39;100.00;101230.84;10438263;28;20063;-76
2023/10/11 13:09:21;;;;;;;1.15;0.95;;;;;;;23.48;100.00;101235.91;10455010;28;20095;-77
2023/10/11 13:14:23;;;;;;;1.70;1.05;;;;;;;23.36;100.00;101244.94;10454488;28;20049;-77
2023/10/11 13:19:26;;;;;;;1.80;1.17;;;;;;;23.52;100.00;101247.22;10438318;28;20053;-76
2023/10/11 13:24:27;;;;;;;1.00;0.82;;;;;;;23.36;100.00;101241.44;10434355;28;20052;-77
2023/10/11 13:29:29;;;;;;;3.50;1.00;;;;;;;23.51;100.00;101233.22;10437824;28;20041;-77
2023/10/11 13:34:33;;;;;;;5.38;1.10;;;;;;;23.47;100.00;101225.44;10451139;28;20515;-77
2023/10/11 13:39:45;;;;;;;2.88;0.95;;;;;;;23.28;100.00;101217.94;10436803;28;20403;-77
2023/10/11 13:44:47;;;;;;;0.70;0.68;;;;;;;23.94;100.00;101209.44;10452635;28;20115;-78
2023/10/11 13:49:49;;;;;;;1.55;0.88;;;;;;;23.63;100.00;101208.41;10452622;28;20055;-80
2023/10/11 13:54:52;;;;;;;1.77;1.13;;;;;;;22.99;100.00;101190.50;10436540;28;20044;-78
2023/10/11 13:59:54;;;;;;;2.03;1.05;;;;;;;23.35;100.00;101187.97;10452721;28;20106;-77
2023/10/11 14:10:36;;;;;;;1.42;0.85;;;;;;;23.39;100.00;101186.16;10454593;28;20091;-78
2023/10/11 14:15:32;;;;;;;2.13;1.05;;;;;;;24.18;100.00;101174.59;10446370;28;20064;-76
2023/10/11 14:20:34;;;;;;;6.75;1.27;;;;;;;23.84;100.00;101164.88;10452632;28;20045;-77
2023/10/11 14:25:36;;;;;;;2.03;1.15;;;;;;;24.48;100.00;101150.94;10452849;28;20067;-77
2023/10/11 14:30:38;;;;;;;0.77;0.77;;;;;;;23.88;100.00;101156.03;10452307;28;20454;-78
2023/10/11 14:35:39;;;;;;;1.23;0.80;;;;;;;23.96;100.00;101137.44;10452813;28;20049;-77
2023/10/11 14:40:42;;;;;;;2.08;1.05;;;;;;;24.20;100.00;101124.53;10452238;28;20041;-77
2023/10/11 14:45:47;;;;;;;1.98;1.05;;;;;;;24.10;100.00;101117.78;10427937;28;20057;-77
2023/10/11 14:50:54;;;;;;;2.00;1.80;;;;;;;24.28;100.00;101117.28;10435467;28;20484;-77
2023/10/11 14:55:57;;;;;;;1.90;1.05;;;;;;;23.95;100.00;101108.53;10453060;28;20063;-76
2023/10/11 15:01:04;;;;;;;1.90;1.17;;;;;;;24.81;100.00;101105.25;10458260;28;20040;-77
2023/10/11 15:06:12;;;;;;;0.73;0.68;;;;;;;24.58;100.00;101092.72;10441740;28;20048;-78
2023/10/11 15:11:20;;;;;;;2.55;0.85;;;;;;;25.21;100.00;101098.72;10459039;28;20053;-77
2023/10/11 15:16:22;;;;;;;2.38;0.88;;;;;;;25.08;100.00;101102.66;10442760;28;20563;-76
2023/10/11 15:21:25;;;;;;;1.08;0.55;;;;;;;24.89;100.00;101097.97;10458778;28;20056;-77
2023/10/11 15:26:26;;;;;;;0.88;0.70;;;;;;;24.82;100.00;101104.34;10458499;28;20563;-77
2023/10/11 15:31:30;;;;;;;0.32;0.32;;;;;;;24.80;100.00;101103.53;10441603;28;20060;-78
2023/10/11 15:36:32;;;;;;;0.45;0.32;;;;;;;25.08;100.00;101100.00;10433578;28;20132;-77
2023/10/11 15:41:34;;;;;;;3.95;1.88;;;;;;;24.39;100.00;101094.13;10450084;28;20079;-77
2023/10/11 15:46:36;;;;;;;0.85;0.60;;;;;;;24.73;100.00;101060.69;10441207;28;20318;-78
2023/10/11 15:51:41;;;;;;;0.63;0.50;;;;;;;24.53;100.00;101059.50;10457521;28;20143;-78
2023/10/11 15:56:43;;;;;;;1.15;0.70;;;;;;;24.99;100.00;101062.50;10449100;28;20068;-78
2023/10/11 16:01:49;;;;;;;3.03;0.75;;;;;;;24.88;100.00;101069.91;10439801;28;20041;-78
2023/10/11 16:06:51;;;;;;;0.73;0.38;;;;;;;25.00;100.00;101064.22;10456477;28;20051;-77
2023/10/11 16:11:53;;;;;;;0.70;0.43;;;;;;;24.79;100.00;101064.91;10421087;28;20045;-78
2023/10/11 16:16:56;;;;;;;0.30;0.30;;;;;;;24.57;100.00;101041.81;10444659;28;20047;-77
2023/10/11 16:21:58;;;;;;;0.10;0.10;;;;;;;24.28;100.00;101043.56;10441982;28;20503;-78
2023/10/11 16:27:00;;;;;;;1.80;0.80;;;;;;;24.13;100.00;101033.47;10456987;28;20029;-77
2023/10/11 16:32:02;;;;;;;1.83;1.48;;;;;;;24.78;100.00;101026.28;10456607;28;20049;-78
2023/10/11 16:37:05;;;;;;;1.45;0.50;;;;;;;24.68;100.00;101026.59;10452572;28;20036;-77
2023/10/11 16:42:07;;;;;;;2.15;0.82;;;;;;;24.95;100.00;101034.53;10458055;28;20128;-78
2023/10/11 16:47:08;;;;;;;0.30;0.10;;;;;;;24.77;100.00;101029.84;10456802;28;20445;-78
2023/10/11 16:52:11;;;;;;;0.32;0.20;;;;;;;24.80;100.00;101020.06;10433681;28;20077;-77
2023/10/11 16:57:19;;;;;;;0.28;0.10;;;;;;;24.56;100.00;101032.19;10457176;28;20041;-77
2023/10/11 17:02:25;;;;;;;0.30;0.28;;;;;;;24.50;100.00;101032.38;10432873;28;20056;-78
2023/10/11 17:07:30;;;;;;;0.47;0.35;;;;;;;23.55;100.00;101021.84;10454355;28;20040;-77
2023/10/11 17:12:34;;;;;;;0.52;0.52;;;;;;;24.36;100.00;101035.44;10455893;28;20091;-78
2023/10/11 17:17:37;;;;;;;0.30;0.25;;;;;;;24.38;100.00;101037.13;10455239;28;20045;-77
2023/10/11 17:22:39;;;;;;;0.85;0.50;;;;;;;23.71;100.00;101031.97;10464054;28;20045;-77
2023/10/11 17:27:42;;;;;;;3.28;0.95;;;;;;;23.97;100.00;101039.19;10438354;28;20052;-78
2023/10/11 17:32:45;;;;;;;0.40;0.30;;;;;;;24.66;100.00;101038.94;10455320;28;20518;-77
2023/10/11 17:37:48;;;;;;;0.90;0.68;;;;;;;24.32;100.00;101055.72;10454993;28;20474;-78
2023/10/11 17:42:50;;;;;;;1.40;0.45;;;;;;;24.23;100.00;101053.38;10450277;28;20496;-77
2023/10/11 17:47:52;;;;;;;1.02;0.50;;;;;;;24.30;100.00;101041.75;10454339;28;20438;-77
2023/10/11 17:52:54;;;;;;;0.30;0.30;;;;;;;23.57;100.00;101040.22;10454917;28;20073;-77
2023/10/11 17:57:59;;;;;;;0.73;0.47;;;;;;;23.94;100.00;101043.66;10453924;28;20048;-77
2023/10/11 18:03:00;;;;;;;0.30;0.15;;;;;;;23.29;100.00;101051.44;10437081;28;20045;-77
2023/10/11 18:08:02;;;;;;;0.47;0.10;;;;;;;23.61;100.00;101057.66;10428872;28;20543;-78
2023/10/11 18:13:04;;;;;;;0.75;0.35;;;;;;;23.84;100.00;101053.53;10453858;28;20048;-77
2023/10/11 18:18:09;;;;;;;0.32;0.25;;;;;;;23.52;100.00;101048.25;10453483;28;20045;-78
2023/10/11 18:23:12;;;;;;;0.35;0.17;;;;;;;23.72;100.00;101039.81;10453778;28;20048;-77
2023/10/11 18:28:14;;;;;;;0.57;0.45;;;;;;;22.57;100.00;101048.72;10453468;28;20049;-78
2023/10/11 18:33:16;;;;;;;1.27;0.88;;;;;;;22.61;100.00;101053.00;10456413;28;20043;-77
2023/10/11 18:38:19;;;;;;;0.32;0.20;;;;;;;22.63;100.00;101061.69;10445651;28;20132;-77
2023/10/11 18:43:20;;;;;;;0.75;0.35;;;;;;;23.47;100.00;101065.03;10445392;28;20102;-77
2023/10/11 18:48:22;;;;;;;1.55;0.85;;;;;;;23.45;100.00;101072.97;10461596;28;20144;-77
2023/10/11 18:53:25;;;;;;;0.55;0.43;;;;;;;23.28;100.00;101081.25;10461094;28;20053;-77
2023/10/11 18:58:27;;;;;;;0.63;0.32;;;;;;;23.59;100.00;101069.97;10460211;28;20060;-78
2023/10/11 19:03:31;;;;;;;1.08;0.60;;;;;;;23.59;100.00;101080.50;10460649;28;20052;-77
2023/10/11 19:08:33;;;;;;;0.82;0.63;;;;;;;23.51;100.00;101053.53;10460278;28;20424;-78
2023/10/11 19:13:35;;;;;;;0.57;0.43;;;;;;;23.60;100.00;101045.41;10460492;28;20041;-78
2023/10/11 19:18:38;;;;;;;0.65;0.45;;;;;;;23.90;100.00;101054.22;10443796;28;20140;-77
2023/10/11 19:23:41;;;;;;;1.55;0.90;;;;;;;23.30;100.00;101032.16;10461297;28;20041;-77
2023/10/11 19:28:43;;;;;;;0.88;0.43;;;;;;;23.84;100.00;101043.03;10459256;28;20120;-78
2023/10/11 19:33:45;;;;;;;0.90;0.25;;;;;;;24.03;100.00;101043.41;10458913;28;20041;-78
2023/10/11 19:38:47;;;;;;;1.40;0.95;;;;;;;23.90;100.00;101037.59;10458467;28;20041;-78
2023/10/11 19:43:52;;;;;;;0.30;0.20;;;;;;;23.91;100.00;101013.00;10459781;28;20454;-78
2023/10/11 19:48:54;;;;;;;0.30;0.30;;;;;;;24.18;100.00;101035.09;10440861;28;20041;-78
2023/10/11 19:53:56;;;;;;;0.15;0.05;;;;;;;23.74;100.00;101026.63;10458120;28;20492;-78
2023/10/11 19:58:58;;;;;;;0.63;0.52;;;;;;;23.58;100.00;101026.16;10457587;28;20076;-77
2023/10/11 20:04:03;;;;;;;1.50;0.45;;;;;;;23.95;100.00;101033.09;10456505;28;20057;-77
2023/10/11 20:09:05;;;;;;;0.75;0.75;;;;;;;23.77;100.00;101042.31;10447747;28;20045;-77
2023/10/11 20:14:07;;;;;;;0.38;0.30;;;;;;;23.71;100.00;101022.31;10457232;28;20488;-78
2023/10/11 20:19:11;;;;;;;0.15;0.15;;;;;;;23.83;100.00;101017.63;10456338;28;20067;-77
2023/10/11 20:24:13;;;;;;;1.02;0.57;;;;;;;23.53;100.00;101022.81;10457093;28;20076;-78
2023/10/11 20:29:19;;;;;;;0.40;0.40;;;;;;;23.55;100.00;101026.25;10437437;28;20438;-77
2023/10/11 20:34:21;;;;;;;0.57;0.47;;;;;;;24.02;100.00;101015.38;10455693;28;20047;-77
2023/10/11 20:39:23;;;;;;;1.80;0.90;;;;;;;24.10;100.00;101023.91;10438609;28;20068;-78
2023/10/11 20:44:25;;;;;;;1.00;0.55;;;;;;;23.59;100.00;101017.38;10455572;28;20056;-77
2023/10/11 20:49:27;;;;;;;0.55;0.52;;;;;;;24.05;100.00;101021.41;10452679;28;20045;-78
2023/10/11 20:54:32;;;;;;;0.05;0.05;;;;;;;24.11;100.00;101041.44;10455178;28;20555;-78
2023/10/11 20:59:38;;;;;;;0.10;0.10;;;;;;;24.10;100.00;101044.06;10455277;28;20484;-77
2023/10/11 21:04:40;;;;;;;1.35;0.60;;;;;;;24.20;100.00;101045.56;10455474;28;20051;-77
2023/10/11 21:09:43;;;;;;;0.30;0.17;;;;;;;23.85;100.00;101047.38;10455765;28;20041;-78
2023/10/11 21:14:45;;;;;;;0.20;0.20;;;;;;;23.28;100.00;101036.56;10455580;28;20098;-77
2023/10/11 21:19:47;;;;;;;0.80;0.40;;;;;;;24.00;100.00;101039.09;10454767;28;20037;-78
2023/10/11 21:24:49;;;;;;;0.45;0.20;;;;;;;23.82;100.00;101039.56;10438462;28;20045;-78
2023/10/11 21:29:50;;;;;;;0.32;0.20;;;;;;;23.70;100.00;101036.38;10454764;28;20036;-78
2023/10/11 21:34:52;;;;;;;5.18;0.28;;;;;;;24.00;100.00;101028.56;10427804;28;20140;-77
2023/10/11 21:39:54;;;;;;;1.10;0.40;;;;;;;23.63;100.00;101034.81;10430907;28;20043;-78
2023/10/11 21:44:56;;;;;;;0.13;0.10;;;;;;;23.96;100.00;101029.56;10454173;28;20041;-78
2023/10/11 21:49:58;;;;;;;1.55;0.60;;;;;;;23.81;100.00;101029.94;10453950;28;20078;-78
2023/10/11 21:55:00;;;;;;;1.25;0.50;;;;;;;23.78;100.00;101030.88;10453895;28;20385;-78
2023/10/11 22:00:01;;;;;;;0.00;0.00;;;;;;;23.29;100.00;101025.16;10453357;28;20094;-77
2023/10/11 22:05:17;;;;;;;0.57;0.40;;;;;;;23.11;100.00;100997.53;10453828;28;20057;-77
2023/10/11 22:10:19;;;;;;;0.68;0.40;;;;;;;23.72;100.00;100997.72;10440953;28;20496;-77
2023/10/11 22:15:22;;;;;;;0.55;0.55;;;;;;;23.51;100.00;100990.41;10458794;28;20056;-77
2023/10/11 22:20:26;;;;;;;1.20;0.88;;;;;;;23.68;100.00;100990.84;10449572;28;20471;-77
2023/10/11 22:25:28;;;;;;;0.85;0.73;;;;;;;22.99;100.00;100975.06;10457580;28;20048;-77
2023/10/11 22:30:29;;;;;;;0.20;0.20;;;;;;;22.92;100.00;100969.13;10446980;28;20045;-77
2023/10/11 22:35:31;;;;;;;0.40;0.28;;;;;;;23.87;100.00;100974.53;10458677;28;20136;-78
2023/10/11 22:40:33;;;;;;;0.40;0.22;;;;;;;24.13;100.00;100986.94;10458242;28;20059;-78
2023/10/11 22:45:38;;;;;;;0.77;0.30;;;;;;;24.03;100.00;100996.88;10449545;28;20157;-78
2023/10/11 22:50:41;;;;;;;0.63;0.45;;;;;;;23.42;100.00;100999.41;10459744;28;20045;-77
2023/10/11 22:55:43;;;;;;;0.50;0.40;;;;;;;23.48;100.00;101015.03;10434775;28;20049;-78
2023/10/11 23:00:45;;;;;;;0.30;0.13;;;;;;;23.23;100.00;101006.91;10457802;28;20049;-78
2023/10/11 23:05:46;;;;;;;0.57;0.43;;;;;;;22.96;100.00;101022.44;10455273;28;20041;-77
2023/10/11 23:10:52;;;;;;;0.30;0.25;;;;;;;23.24;100.00;101021.78;10454257;28;20064;-78
2023/10/11 23:15:54;;;;;;;1.08;0.20;;;;;;;22.76;100.00;101010.63;10435498;28;20144;-77
2023/10/11 23:20:56;;;;;;;0.80;0.55;;;;;;;22.39;100.00;100997.47;10455623;28;20045;-77
2023/10/11 23:26:04;;;;;;;2.58;0.70;;;;;;;22.49;100.00;101002.50;10458204;28;20586;-79
2023/10/11 23:31:08;;;;;;;0.77;0.52;;;;;;;22.89;100.00;101012.97;10442659;28;20052;-79
2023/10/11 23:36:12;;;;;;;0.20;0.20;;;;;;;22.90;100.00;101019.94;10458295;28;20051;-79
2023/10/11 23:41:34;;;;;;;0.60;0.60;;;;;;;22.35;100.00;101036.03;10458010;28;20103;-79
2023/10/11 23:46:39;;;;;;;0.15;0.15;;;;;;;22.57;100.00;101030.34;10458207;28;20102;-79